createdAt,value
2023-01-22T00:00:46.637Z,2.08
2023-01-22T00:01:46.691Z,2.12
2023-01-22T00:02:46.699Z,2.12
2023-01-22T00:03:47.318Z,2.10
2023-01-22T00:04:46.595Z,2.09
2023-01-22T00:05:46.579Z,2.10
2023-01-22T00:06:46.609Z,2.10
2023-01-22T00:07:46.519Z,2.06
2023-01-22T00:08:46.522Z,2.09
2023-01-22T00:09:46.621Z,2.09
2023-01-22T00:10:46.500Z,2.10
2023-01-22T00:11:46.482Z,2.12
2023-01-22T00:12:46.546Z,2.08
2023-01-22T00:13:46.451Z,2.04
2023-01-22T00:14:46.459Z,2.02
2023-01-22T00:15:46.534Z,1.98
2023-01-22T00:16:46.460Z,1.99
2023-01-22T00:17:46.391Z,2.04
2023-01-22T00:18:46.459Z,2.04
2023-01-22T00:19:46.372Z,2.04
2023-01-22T00:20:46.390Z,2.08
2023-01-22T00:21:46.379Z,2.04
2023-01-22T00:22:46.330Z,2.04
2023-01-22T00:23:46.329Z,1.99
2023-01-22T00:25:57.255Z,1.93
2023-01-22T00:26:57.225Z,2.04
2023-01-22T00:27:57.253Z,2.10
2023-01-22T00:28:57.248Z,2.17
2023-01-22T00:29:57.232Z,2.17
2023-01-22T00:30:57.254Z,2.12
2023-01-22T00:31:57.356Z,2.06
2023-01-22T00:32:57.157Z,2.02
2023-01-22T00:33:57.130Z,2.01
2023-01-22T00:34:57.152Z,2.01
2023-01-22T00:35:57.145Z,2.04
2023-01-22T00:36:57.110Z,2.06
2023-01-22T00:37:57.082Z,2.06
2023-01-22T00:38:57.082Z,2.04
2023-01-22T00:39:57.054Z,2.02
2023-01-22T00:40:57.089Z,2.06
2023-01-22T00:41:57.089Z,2.04
2023-01-22T00:42:57.049Z,2.02
2023-01-22T00:43:57.358Z,1.93
2023-01-22T00:44:56.988Z,1.94
2023-01-22T00:45:56.976Z,1.94
2023-01-22T00:46:56.970Z,1.93
2023-01-22T00:47:57.008Z,1.91
2023-01-22T00:48:56.937Z,1.98
2023-01-22T00:49:56.924Z,1.98
2023-01-22T00:50:56.968Z,1.99
2023-01-22T00:51:56.911Z,2.01
2023-01-22T00:52:56.917Z,2.01
2023-01-22T00:53:56.960Z,2.01
2023-01-22T00:54:56.879Z,1.98
2023-01-22T00:55:57.006Z,1.91
2023-01-22T00:56:56.966Z,1.93
2023-01-22T00:57:56.838Z,1.97
2023-01-22T00:58:58.612Z,1.97
2023-01-22T00:59:56.813Z,2.02
2023-01-22T01:00:56.887Z,2.04
2023-01-22T01:01:56.826Z,2.06
2023-01-22T01:02:56.823Z,2.06
2023-01-22T01:03:56.756Z,2.08
2023-01-22T01:04:56.757Z,2.08
2023-01-22T01:05:56.707Z,2.08
2023-01-22T01:06:56.788Z,2.09
2023-01-22T01:07:56.699Z,2.01
2023-01-22T01:08:56.705Z,1.99
2023-01-22T01:09:56.711Z,1.97
2023-01-22T01:10:56.667Z,1.94
2023-01-22T01:11:56.659Z,1.89
2023-01-22T01:12:56.721Z,1.90
2023-01-22T01:13:56.678Z,1.91
2023-01-22T01:14:56.631Z,1.97
2023-01-22T01:15:56.672Z,2.01
2023-01-22T01:16:58.388Z,1.99
2023-01-22T01:17:56.582Z,2.01
2023-01-22T01:18:56.661Z,2.08
2023-01-22T01:19:56.530Z,2.06
2023-01-22T01:20:56.530Z,2.06
2023-01-22T01:21:56.575Z,2.13
2023-01-22T01:22:56.496Z,2.20
2023-01-22T01:23:56.523Z,2.27
2023-01-22T01:24:56.519Z,2.28
2023-01-22T01:25:56.540Z,2.31
2023-01-22T01:26:56.459Z,2.33
2023-01-22T01:27:56.426Z,2.27
2023-01-22T01:28:56.496Z,2.17
2023-01-22T01:29:56.580Z,2.13
2023-01-22T01:30:56.600Z,2.09
2023-01-22T01:31:56.540Z,2.08
2023-01-22T01:32:56.395Z,2.09
2023-01-22T01:33:56.385Z,2.13
2023-01-22T01:34:56.356Z,2.16
2023-01-22T01:35:56.392Z,2.17
2023-01-22T01:36:56.355Z,2.19
2023-01-22T01:37:56.306Z,2.17
2023-01-22T01:38:56.306Z,2.16
2023-01-22T01:39:56.311Z,2.19
2023-01-22T01:40:56.270Z,2.17
2023-01-22T01:41:56.308Z,2.17
2023-01-22T01:42:56.263Z,2.12
2023-01-22T01:43:56.302Z,2.15
2023-01-22T01:44:56.232Z,2.12
2023-01-22T01:45:56.385Z,2.16
2023-01-22T01:46:56.226Z,2.20
2023-01-22T01:47:56.172Z,2.26
2023-01-22T01:49:07.519Z,2.26
2023-01-22T01:49:56.181Z,2.26
2023-01-22T01:50:56.206Z,2.22
2023-01-22T01:51:56.121Z,2.26
2023-01-22T01:52:56.163Z,2.23
2023-01-22T01:53:56.374Z,2.23
2023-01-22T01:54:56.101Z,2.22
2023-01-22T01:55:56.114Z,2.26
2023-01-22T01:56:56.133Z,2.30
2023-01-22T01:57:56.234Z,2.26
2023-01-22T01:58:56.057Z,2.22
2023-01-22T01:59:56.087Z,2.23
2023-01-22T02:00:56.130Z,2.20
2023-01-22T02:01:56.174Z,2.20
2023-01-22T02:02:56.017Z,2.22
2023-01-22T02:03:56.076Z,2.30
2023-01-22T02:04:55.981Z,2.30
2023-01-22T02:05:55.971Z,2.34
2023-01-22T02:06:55.993Z,2.34
2023-01-22T02:07:55.957Z,2.35
2023-01-22T02:08:55.930Z,2.38
2023-01-22T02:09:55.890Z,2.38
2023-01-22T02:10:56.140Z,2.40
2023-01-22T02:11:55.904Z,2.40
2023-01-22T02:12:55.976Z,2.44
2023-01-22T02:13:55.850Z,2.46
2023-01-22T02:14:55.875Z,2.48
2023-01-22T02:15:55.871Z,2.49
2023-01-22T02:16:55.818Z,2.46
2023-01-22T02:17:55.906Z,2.45
2023-01-22T02:18:55.825Z,2.44
2023-01-22T02:19:55.759Z,2.46
2023-01-22T02:20:55.779Z,2.48
2023-01-22T02:21:55.749Z,2.49
2023-01-22T02:22:55.729Z,2.45
2023-01-22T02:23:55.706Z,2.40
2023-01-22T02:24:55.739Z,2.38
2023-01-22T02:25:55.799Z,2.40
2023-01-22T02:26:55.656Z,2.44
2023-01-22T02:27:55.757Z,2.44
2023-01-22T02:28:55.637Z,2.44
2023-01-22T02:29:55.667Z,2.45
2023-01-22T02:30:55.754Z,2.45
2023-01-22T02:31:55.677Z,2.41
2023-01-22T02:32:55.600Z,2.45
2023-01-22T02:33:55.626Z,2.46
2023-01-22T02:34:55.701Z,2.46
2023-01-22T02:35:55.558Z,2.46
2023-01-22T02:36:55.653Z,2.49
2023-01-22T02:37:55.529Z,2.52
2023-01-22T02:38:55.536Z,2.55
2023-01-22T02:39:55.534Z,2.51
2023-01-22T02:40:55.709Z,2.51
2023-01-22T02:41:55.507Z,2.53
2023-01-22T02:42:55.548Z,2.56
2023-01-22T02:43:55.476Z,2.56
2023-01-22T02:44:55.620Z,2.53
2023-01-22T02:45:55.473Z,2.51
2023-01-22T02:46:55.481Z,2.51
2023-01-22T02:47:55.479Z,2.53
2023-01-22T02:48:55.477Z,2.45
2023-01-22T02:49:55.377Z,2.40
2023-01-22T02:50:55.392Z,2.45
2023-01-22T02:51:55.378Z,2.45
2023-01-22T02:52:55.505Z,2.44
2023-01-22T02:53:55.395Z,2.45
2023-01-22T02:54:55.387Z,2.44
2023-01-22T02:55:55.451Z,2.41
2023-01-22T02:56:55.297Z,2.44
2023-01-22T02:57:55.293Z,2.41
2023-01-22T02:58:55.325Z,2.41
2023-01-22T02:59:55.273Z,2.41
2023-01-22T03:00:55.323Z,2.40
2023-01-22T03:01:55.241Z,2.44
2023-01-22T03:07:34.533Z,2.52
2023-01-22T03:08:34.503Z,2.51
2023-01-22T03:09:34.515Z,2.51
2023-01-22T03:10:34.420Z,2.49
2023-01-22T03:11:34.522Z,2.52
2023-01-22T03:12:34.429Z,2.51
2023-01-22T03:13:34.453Z,2.48
2023-01-22T03:14:34.417Z,2.48
2023-01-22T03:15:34.430Z,2.48
2023-01-22T03:16:34.468Z,2.48
2023-01-22T03:17:34.351Z,2.46
2023-01-22T03:18:41.821Z,2.53
2023-01-22T03:19:34.346Z,2.53
2023-01-22T03:20:34.376Z,2.56
2023-01-22T03:21:34.466Z,2.58
2023-01-22T03:22:34.291Z,2.56
2023-01-22T03:23:34.319Z,2.55
2023-01-22T03:24:34.249Z,2.53
2023-01-22T03:25:34.207Z,2.55
2023-01-22T03:26:34.236Z,2.58
2023-01-22T03:27:34.239Z,2.59
2023-01-22T03:28:34.221Z,2.59
2023-01-22T03:29:34.225Z,2.58
2023-01-22T03:30:34.229Z,2.56
2023-01-22T03:31:34.231Z,2.59
2023-01-22T03:32:34.130Z,2.63
2023-01-22T03:33:34.146Z,2.61
2023-01-22T03:34:34.169Z,2.58
2023-01-22T03:35:34.151Z,2.56
2023-01-22T03:36:34.135Z,2.58
2023-01-22T03:37:34.072Z,2.53
2023-01-22T03:38:34.072Z,2.58
2023-01-22T03:39:34.098Z,2.63
2023-01-22T03:40:34.013Z,2.66
2023-01-22T03:41:34.093Z,2.66
2023-01-22T03:42:34.131Z,2.64
2023-01-22T03:43:34.030Z,2.61
2023-01-22T03:44:34.039Z,2.63
2023-01-22T03:45:34.041Z,2.66
2023-01-22T03:46:33.972Z,2.70
2023-01-22T03:47:33.967Z,2.69
2023-01-22T03:48:33.952Z,2.70
2023-01-22T03:49:33.932Z,2.74
2023-01-22T03:50:34.030Z,2.74
2023-01-22T03:51:34.145Z,2.76
2023-01-22T03:52:33.891Z,2.76
2023-01-22T03:53:34.030Z,2.74
2023-01-22T03:54:33.880Z,2.70
2023-01-22T03:55:33.844Z,2.73
2023-01-22T03:56:33.887Z,2.70
2023-01-22T03:57:33.853Z,2.74
2023-01-22T03:58:33.803Z,2.77
2023-01-22T03:59:33.832Z,2.73
2023-01-22T04:00:33.771Z,2.70
2023-01-22T04:01:33.816Z,2.73
2023-01-22T04:02:33.990Z,2.71
2023-01-22T04:03:33.772Z,2.70
2023-01-22T04:04:33.764Z,2.69
2023-01-22T04:05:33.780Z,2.70
2023-01-22T04:06:33.705Z,2.64
2023-01-22T04:07:33.697Z,2.59
2023-01-22T04:08:33.809Z,2.52
2023-01-22T04:09:33.698Z,2.49
2023-01-22T04:10:33.672Z,2.48
2023-01-22T04:11:33.788Z,2.53
2023-01-22T04:12:33.637Z,2.55
2023-01-22T04:13:33.603Z,2.59
2023-01-22T04:14:33.747Z,2.63
2023-01-22T04:15:33.618Z,2.59
2023-01-22T04:16:33.643Z,2.66
2023-01-22T04:17:33.688Z,2.64
2023-01-22T04:18:33.736Z,2.63
2023-01-22T04:19:33.602Z,2.64
2023-01-22T04:20:33.713Z,2.64
2023-01-22T04:21:33.593Z,2.66
2023-01-22T04:22:33.528Z,2.67
2023-01-22T04:23:33.513Z,2.69
2023-01-22T04:24:33.467Z,2.66
2023-01-22T04:25:33.464Z,2.63
2023-01-22T04:26:33.597Z,2.61
2023-01-22T04:27:35.167Z,2.58
2023-01-22T04:28:33.430Z,2.56
2023-01-22T04:29:33.499Z,2.63
2023-01-22T04:30:33.470Z,2.66
2023-01-22T04:31:33.440Z,2.66
2023-01-22T04:32:33.453Z,2.66
2023-01-22T04:33:33.367Z,2.67
2023-01-22T04:34:33.376Z,2.66
2023-01-22T04:35:33.516Z,2.66
2023-01-22T04:36:33.316Z,2.64
2023-01-22T04:37:33.292Z,2.63
2023-01-22T04:38:33.317Z,2.66
2023-01-22T04:39:33.327Z,2.67
2023-01-22T04:40:33.294Z,2.67
2023-01-22T04:41:33.391Z,2.70
2023-01-22T04:42:33.225Z,2.67
2023-01-22T04:43:33.255Z,2.67
2023-01-22T04:44:33.252Z,2.64
2023-01-22T04:45:33.243Z,2.63
2023-01-22T04:46:33.190Z,2.64
2023-01-22T04:47:33.239Z,2.58
2023-01-22T04:48:33.155Z,2.58
2023-01-22T04:49:33.172Z,2.59
2023-01-22T04:50:33.240Z,2.61
2023-01-22T04:51:33.153Z,2.66
2023-01-22T04:52:33.149Z,2.64
2023-01-22T04:53:33.127Z,2.66
2023-01-22T04:54:33.086Z,2.63
2023-01-22T04:55:33.142Z,2.59
2023-01-22T04:56:33.221Z,2.63
2023-01-22T04:57:33.132Z,2.64
2023-01-22T04:58:33.062Z,2.61
2023-01-22T04:59:33.151Z,2.66
2023-01-22T05:00:33.052Z,2.67
2023-01-22T05:01:33.039Z,2.70
2023-01-22T05:02:33.082Z,2.73
2023-01-22T05:03:33.015Z,2.71
2023-01-22T05:04:32.971Z,2.74
2023-01-22T05:05:33.068Z,2.74
2023-01-22T05:06:32.962Z,2.74
2023-01-22T05:07:32.977Z,2.74
2023-01-22T05:08:33.035Z,2.73
2023-01-22T05:09:32.950Z,2.77
2023-01-22T05:10:32.914Z,2.81
2023-01-22T05:11:32.890Z,2.81
2023-01-22T05:12:32.831Z,2.77
2023-01-22T05:13:32.827Z,2.77
2023-01-22T05:14:51.495Z,2.74
2023-01-22T05:15:33.903Z,2.74
2023-01-22T05:16:32.810Z,2.76
2023-01-22T05:17:32.935Z,2.77
2023-01-22T05:18:32.815Z,2.77
2023-01-22T05:19:32.757Z,2.77
2023-01-22T05:20:32.796Z,2.77
2023-01-22T05:21:32.788Z,2.74
2023-01-22T05:22:32.738Z,2.74
2023-01-22T05:23:32.869Z,2.77
2023-01-22T05:24:32.698Z,2.77
2023-01-22T05:25:32.721Z,2.76
2023-01-22T05:26:32.732Z,2.73
2023-01-22T05:27:32.678Z,2.70
2023-01-22T05:28:32.737Z,2.70
2023-01-22T05:29:32.906Z,2.70
2023-01-22T05:30:32.716Z,2.67
2023-01-22T05:31:32.646Z,2.66
2023-01-22T05:32:32.729Z,2.66
2023-01-22T05:33:32.620Z,2.64
2023-01-22T05:34:32.586Z,2.64
2023-01-22T05:35:32.773Z,2.64
2023-01-22T05:36:32.541Z,2.64
2023-01-22T05:37:32.546Z,2.67
2023-01-22T05:38:32.608Z,2.70
2023-01-22T05:39:32.568Z,2.70
2023-01-22T05:40:32.491Z,2.69
2023-01-22T05:41:32.658Z,2.69
2023-01-22T05:42:32.520Z,2.70
2023-01-22T05:43:32.458Z,2.69
2023-01-22T05:44:33.579Z,2.71
2023-01-22T05:45:32.515Z,2.73
2023-01-22T05:46:32.464Z,2.73
2023-01-22T05:47:33.634Z,2.74
2023-01-22T05:48:32.392Z,2.71
2023-01-22T05:49:32.368Z,2.69
2023-01-22T05:50:32.399Z,2.67
2023-01-22T05:51:32.608Z,2.66
2023-01-22T05:52:32.392Z,2.66
2023-01-22T05:53:32.468Z,2.69
2023-01-22T05:54:32.345Z,2.69
2023-01-22T05:55:32.306Z,2.69
2023-01-22T05:56:32.317Z,2.69
2023-01-22T05:57:32.306Z,2.69
2023-01-22T05:58:32.300Z,2.69
2023-01-22T06:00:40.917Z,2.51
2023-01-22T06:01:32.202Z,2.55
2023-01-22T06:02:32.258Z,2.63
2023-01-22T06:03:32.183Z,2.67
2023-01-22T06:04:32.184Z,2.73
2023-01-22T06:05:32.193Z,2.76
2023-01-22T06:06:32.224Z,2.79
2023-01-22T06:07:32.124Z,2.79
2023-01-22T06:08:34.235Z,2.77
2023-01-22T06:09:32.197Z,2.81
2023-01-22T06:10:32.123Z,2.82
2023-01-22T06:11:32.115Z,2.82
2023-01-22T06:12:32.320Z,2.84
2023-01-22T06:13:32.054Z,2.85
2023-01-22T06:14:32.053Z,2.84
2023-01-22T06:15:32.087Z,2.82
2023-01-22T06:16:32.012Z,2.81
2023-01-22T06:17:32.003Z,2.85
2023-01-22T06:18:32.187Z,2.84
2023-01-22T06:19:32.051Z,2.82
2023-01-22T06:20:31.981Z,2.87
2023-01-22T06:21:31.962Z,2.88
2023-01-22T06:22:31.986Z,2.87
2023-01-22T06:23:32.041Z,2.89
2023-01-22T06:24:31.982Z,2.89
2023-01-22T06:25:31.941Z,2.89
2023-01-22T06:26:31.906Z,2.88
2023-01-22T06:27:31.873Z,2.89
2023-01-22T06:28:31.883Z,2.92
2023-01-22T06:29:32.007Z,2.94
2023-01-22T06:30:31.917Z,2.92
2023-01-22T06:31:31.965Z,2.92
2023-01-22T06:32:31.813Z,2.95
2023-01-22T06:33:31.830Z,2.92
2023-01-22T06:34:31.800Z,2.92
2023-01-22T06:35:31.809Z,2.95
2023-01-22T06:36:31.870Z,2.94
2023-01-22T06:37:31.900Z,2.97
2023-01-22T06:38:31.811Z,2.95
2023-01-22T06:39:31.789Z,2.94
2023-01-22T06:40:31.708Z,2.95
2023-01-22T06:41:40.871Z,3.03
2023-01-22T06:42:31.754Z,3.00
2023-01-22T06:43:31.734Z,2.98
2023-01-22T06:44:31.700Z,3.02
2023-01-22T06:45:31.741Z,3.06
2023-01-22T06:46:31.681Z,3.03
2023-01-22T06:47:31.748Z,3.00
2023-01-22T06:48:31.697Z,2.98
2023-01-22T06:49:31.607Z,2.97
2023-01-22T06:50:31.700Z,2.97
2023-01-22T06:51:31.609Z,2.92
2023-01-22T06:52:31.637Z,2.94
2023-01-22T06:53:31.686Z,2.97
2023-01-22T06:54:31.547Z,2.97
2023-01-22T06:55:31.554Z,3.02
2023-01-22T06:56:31.798Z,3.06
2023-01-22T06:57:31.555Z,3.07
2023-01-22T06:58:31.531Z,3.12
2023-01-22T06:59:31.503Z,3.13
2023-01-22T07:00:31.498Z,3.16
2023-01-22T07:01:31.503Z,3.16
2023-01-22T07:02:31.448Z,3.20
2023-01-22T07:03:31.595Z,3.23
2023-01-22T07:04:31.414Z,3.21
2023-01-22T07:05:31.536Z,3.23
2023-01-22T07:06:31.496Z,3.24
2023-01-22T07:07:31.428Z,3.24
2023-01-22T07:08:31.416Z,3.24
2023-01-22T07:09:32.396Z,3.23
2023-01-22T07:10:31.383Z,3.25
2023-01-22T07:11:31.414Z,3.28
2023-01-22T07:12:31.396Z,3.33
2023-01-22T07:13:31.368Z,3.34
2023-01-22T07:14:36.825Z,3.36
2023-01-22T07:15:32.345Z,3.33
2023-01-22T07:16:31.272Z,3.34
2023-01-22T07:17:31.313Z,3.34
2023-01-22T07:18:31.509Z,3.34
2023-01-22T07:19:31.230Z,3.36
2023-01-22T07:20:31.228Z,3.36
2023-01-22T07:21:31.247Z,3.40
2023-01-22T07:22:31.187Z,3.42
2023-01-22T07:23:31.198Z,3.42
2023-01-22T07:24:31.332Z,3.36
2023-01-22T07:25:31.151Z,3.30
2023-01-22T07:26:31.129Z,3.20
2023-01-22T07:27:31.169Z,3.20
2023-01-22T07:28:31.105Z,3.23
2023-01-22T07:29:31.122Z,3.18
2023-01-22T07:30:31.225Z,3.15
2023-01-22T07:31:31.135Z,3.18
2023-01-22T07:32:31.086Z,3.23
2023-01-22T07:33:31.204Z,3.27
2023-01-22T07:34:31.034Z,3.28
2023-01-22T07:35:31.026Z,3.33
2023-01-22T07:36:31.210Z,3.40
2023-01-22T07:37:30.967Z,3.44
2023-01-22T07:38:31.026Z,3.47
2023-01-22T07:39:31.133Z,3.52
2023-01-22T07:40:31.015Z,3.49
2023-01-22T07:41:30.947Z,3.43
2023-01-22T07:42:31.051Z,3.36
2023-01-22T07:43:30.936Z,3.27
2023-01-22T07:44:30.964Z,3.28
2023-01-22T07:45:30.936Z,3.20
2023-01-22T07:46:30.926Z,3.10
2023-01-22T07:47:30.846Z,3.09
2023-01-22T07:48:30.928Z,3.07
2023-01-22T07:49:30.823Z,3.03
2023-01-22T07:50:30.832Z,3.03
2023-01-22T07:51:30.956Z,3.05
2023-01-22T07:52:30.815Z,3.05
2023-01-22T07:53:30.824Z,3.02
2023-01-22T07:54:30.905Z,3.02
2023-01-22T07:55:30.882Z,3.09
2023-01-22T07:56:30.712Z,3.18
2023-01-22T07:57:30.819Z,3.23
2023-01-22T07:58:30.756Z,3.28
2023-01-22T07:59:30.705Z,3.30
2023-01-22T08:00:30.819Z,3.34
2023-01-22T08:01:30.651Z,3.39
2023-01-22T08:02:30.666Z,3.39
2023-01-22T08:03:30.739Z,3.42
2023-01-22T08:04:30.611Z,3.42
2023-01-22T08:05:30.615Z,3.42
2023-01-22T08:06:30.683Z,3.39
2023-01-22T08:07:30.653Z,3.34
2023-01-22T08:08:30.630Z,3.33
2023-01-22T08:09:30.943Z,3.30
2023-01-22T08:10:30.695Z,3.30
2023-01-22T08:11:30.564Z,3.31
2023-01-22T08:12:30.736Z,3.33
2023-01-22T08:13:30.504Z,3.36
2023-01-22T08:14:30.519Z,3.33
2023-01-22T08:15:30.807Z,3.30
2023-01-22T08:16:30.520Z,3.30
2023-01-22T08:17:30.579Z,3.30
2023-01-22T08:18:30.537Z,3.31
2023-01-22T08:19:30.496Z,3.42
2023-01-22T08:20:30.469Z,3.43
2023-01-22T08:22:40.276Z,3.27
2023-01-22T08:23:40.240Z,3.30
2023-01-22T08:24:40.249Z,3.27
2023-01-22T08:25:40.229Z,3.28
2023-01-22T08:26:40.180Z,3.31
2023-01-22T08:27:40.195Z,3.31
2023-01-22T08:28:43.231Z,3.33
2023-01-22T08:29:40.200Z,3.31
2023-01-22T08:30:46.180Z,3.36
2023-01-22T08:31:41.378Z,3.34
2023-01-22T08:32:40.146Z,3.24
2023-01-22T08:33:40.129Z,3.16
2023-01-22T08:34:40.158Z,3.09
2023-01-22T08:35:40.186Z,3.06
2023-01-22T08:36:40.400Z,3.02
2023-01-22T08:37:40.047Z,2.98
2023-01-22T08:38:40.106Z,2.95
2023-01-22T08:39:40.043Z,2.97
2023-01-22T08:40:40.044Z,2.98
2023-01-22T08:41:40.000Z,3.02
2023-01-22T08:42:40.037Z,3.02
2023-01-22T08:43:39.999Z,3.09
2023-01-22T08:44:39.968Z,3.07
2023-01-22T08:45:40.024Z,3.07
2023-01-22T08:46:39.966Z,3.07
2023-01-22T08:47:39.949Z,3.12
2023-01-22T08:48:40.022Z,3.13
2023-01-22T08:49:39.904Z,3.13
2023-01-22T08:50:39.894Z,3.15
2023-01-22T08:51:39.907Z,3.12
2023-01-22T08:52:39.847Z,3.09
2023-01-22T08:53:39.887Z,3.12
2023-01-22T08:54:39.891Z,3.09
2023-01-22T08:55:39.941Z,3.12
2023-01-22T08:56:39.797Z,3.18
2023-01-22T08:57:39.842Z,3.21
2023-01-22T08:58:39.885Z,3.23
2023-01-22T08:59:41.589Z,3.21
2023-01-22T09:00:39.797Z,3.16
2023-01-22T09:01:39.780Z,3.12
2023-01-22T09:02:39.782Z,3.13
2023-01-22T09:03:39.745Z,3.21
2023-01-22T09:04:40.526Z,3.21
2023-01-22T09:05:39.737Z,3.18
2023-01-22T09:06:39.673Z,3.10
2023-01-22T09:07:39.761Z,3.13
2023-01-22T09:08:39.659Z,3.12
2023-01-22T09:09:39.671Z,3.16
2023-01-22T09:10:39.627Z,3.10
2023-01-22T09:11:39.686Z,3.10
2023-01-22T09:12:39.583Z,3.10
2023-01-22T09:13:39.632Z,3.15
2023-01-22T09:14:39.586Z,3.18
2023-01-22T09:15:39.662Z,3.23
2023-01-22T09:16:39.625Z,3.23
2023-01-22T09:17:39.668Z,3.21
2023-01-22T09:18:39.547Z,3.23
2023-01-22T09:19:39.505Z,3.23
2023-01-22T09:20:39.661Z,3.24
2023-01-22T09:21:39.477Z,3.13
2023-01-22T09:22:39.624Z,3.05
2023-01-22T09:23:39.495Z,3.10
2023-01-22T09:24:39.450Z,3.07
2023-01-22T09:25:39.441Z,3.07
2023-01-22T09:26:39.421Z,3.09
2023-01-22T09:27:39.410Z,3.09
2023-01-22T09:28:39.469Z,3.12
2023-01-22T09:29:39.525Z,3.09
2023-01-22T09:30:39.498Z,3.10
2023-01-22T09:31:39.494Z,3.12
2023-01-22T09:32:39.333Z,3.13
2023-01-22T09:33:39.440Z,3.13
2023-01-22T09:34:39.474Z,3.12
2023-01-22T09:35:39.325Z,3.15
2023-01-22T09:36:39.438Z,3.15
2023-01-22T09:37:42.602Z,3.21
2023-01-22T09:38:39.286Z,3.27
2023-01-22T09:39:39.260Z,3.30
2023-01-22T09:40:39.291Z,3.33
2023-01-22T09:41:39.267Z,3.33
2023-01-22T09:42:39.280Z,3.30
2023-01-22T09:43:39.367Z,3.23
2023-01-22T09:44:39.220Z,3.20
2023-01-22T09:45:39.267Z,3.23
2023-01-22T09:46:39.173Z,3.28
2023-01-22T09:47:39.150Z,3.28
2023-01-22T09:48:39.185Z,3.39
2023-01-22T09:49:39.161Z,3.36
2023-01-22T09:50:39.101Z,3.28
2023-01-22T09:51:39.154Z,3.25
2023-01-22T09:52:39.105Z,3.30
2023-01-22T09:53:39.139Z,3.33
2023-01-22T09:54:39.135Z,3.42
2023-01-22T09:55:39.109Z,3.50
2023-01-22T09:56:39.159Z,3.60
2023-01-22T09:57:39.192Z,3.64
2023-01-22T09:58:39.010Z,3.61
2023-01-22T09:59:39.018Z,3.54
2023-01-22T10:00:39.025Z,3.58
2023-01-22T10:01:39.174Z,3.57
2023-01-22T10:02:39.142Z,3.61
2023-01-22T10:03:39.012Z,3.67
2023-01-22T10:04:38.977Z,3.64
2023-01-22T10:05:39.000Z,3.49
2023-01-22T10:06:38.927Z,3.44
2023-01-22T10:07:38.906Z,3.49
2023-01-22T10:08:38.894Z,3.50
2023-01-22T10:09:38.861Z,3.46
2023-01-22T10:10:38.902Z,3.47
2023-01-22T10:11:38.925Z,3.53
2023-01-22T10:12:38.807Z,3.67
2023-01-22T10:13:38.828Z,3.68
2023-01-22T10:14:38.826Z,3.72
2023-01-22T10:15:38.818Z,3.82
2023-01-22T10:16:38.831Z,3.88
2023-01-22T10:17:38.806Z,3.94
2023-01-22T10:18:38.774Z,3.86
2023-01-22T10:19:38.737Z,3.72
2023-01-22T10:20:38.830Z,3.65
2023-01-22T10:21:38.716Z,3.70
2023-01-22T10:22:38.695Z,3.70
2023-01-22T10:23:38.831Z,3.67
2023-01-22T10:24:38.668Z,3.75
2023-01-22T10:25:38.675Z,3.85
2023-01-22T10:26:38.646Z,3.86
2023-01-22T10:27:38.651Z,3.94
2023-01-22T10:28:38.640Z,3.98
2023-01-22T10:29:38.617Z,3.97
2023-01-22T10:30:38.713Z,3.89
2023-01-22T10:31:38.752Z,3.94
2023-01-22T10:32:38.554Z,4.00
2023-01-22T10:33:38.580Z,4.12
2023-01-22T10:34:38.571Z,4.24
2023-01-22T10:35:38.583Z,4.26
2023-01-22T10:36:38.522Z,4.24
2023-01-22T10:37:38.482Z,4.15
2023-01-22T10:38:38.503Z,4.19
2023-01-22T10:39:38.779Z,4.22
2023-01-22T10:40:38.442Z,4.12
2023-01-22T10:41:38.464Z,4.00
2023-01-22T10:42:38.413Z,4.06
2023-01-22T10:43:38.486Z,4.06
2023-01-22T10:44:38.418Z,4.14
2023-01-22T10:45:38.392Z,4.08
2023-01-22T10:46:38.357Z,3.92
2023-01-22T10:47:38.374Z,3.83
2023-01-22T10:48:38.334Z,3.80
2023-01-22T10:49:38.378Z,3.80
2023-01-22T10:50:38.434Z,3.86
2023-01-22T10:51:38.301Z,3.85
2023-01-22T10:52:38.348Z,3.83
2023-01-22T10:54:29.085Z,3.88
2023-01-22T10:54:39.248Z,3.70
2023-01-22T10:55:38.264Z,3.71
2023-01-22T10:56:38.223Z,3.78
2023-01-22T10:57:38.214Z,3.88
2023-01-22T10:58:38.208Z,3.92
2023-01-22T10:59:38.380Z,3.86
2023-01-22T11:00:50.509Z,3.79
2023-01-22T11:01:39.183Z,3.80
2023-01-22T11:02:38.188Z,3.78
2023-01-22T11:03:38.190Z,3.83
2023-01-22T11:04:38.113Z,3.88
2023-01-22T11:05:38.129Z,3.86
2023-01-22T11:06:38.090Z,3.82
2023-01-22T11:07:38.089Z,3.82
2023-01-22T11:08:38.059Z,3.80
2023-01-22T11:09:38.119Z,3.76
2023-01-22T11:10:38.025Z,3.79
2023-01-22T11:11:38.044Z,3.88
2023-01-22T11:12:38.103Z,4.07
2023-01-22T11:13:38.139Z,4.04
2023-01-22T11:14:37.989Z,3.90
2023-01-22T11:15:38.234Z,3.85
2023-01-22T11:16:37.960Z,3.88
2023-01-22T11:17:37.949Z,3.82
2023-01-22T11:18:37.926Z,3.80
2023-01-22T11:19:38.072Z,3.78
2023-01-22T11:20:37.915Z,3.80
2023-01-22T11:21:37.879Z,3.88
2023-01-22T11:22:38.428Z,3.96
2023-01-22T11:23:37.849Z,4.01
2023-01-22T11:24:37.865Z,4.01
2023-01-22T11:25:37.898Z,4.00
2023-01-22T11:26:37.832Z,4.10
2023-01-22T11:27:37.846Z,4.03
2023-01-22T11:28:37.919Z,3.92
2023-01-22T11:29:37.788Z,3.97
2023-01-22T11:30:37.902Z,3.96
2023-01-22T11:31:37.947Z,4.07
2023-01-22T11:32:37.748Z,4.25
2023-01-22T11:33:37.738Z,4.25
2023-01-22T11:34:37.710Z,4.18
2023-01-22T11:35:37.736Z,4.34
2023-01-22T11:36:37.678Z,4.34
2023-01-22T11:37:37.716Z,4.24
2023-01-22T11:38:37.718Z,4.16
2023-01-22T11:39:37.653Z,4.15
2023-01-22T11:40:37.669Z,4.15
2023-01-22T11:41:37.694Z,4.22
2023-01-22T11:42:37.653Z,4.22
2023-01-22T11:43:37.613Z,4.22
2023-01-22T11:44:37.639Z,4.12
2023-01-22T11:45:37.568Z,4.06
2023-01-22T11:46:37.567Z,4.12
2023-01-22T11:47:37.583Z,4.16
2023-01-22T11:48:39.339Z,4.15
2023-01-22T11:49:37.608Z,4.19
2023-01-22T11:50:49.284Z,4.26
2023-01-22T11:51:37.476Z,4.28
2023-01-22T11:52:37.466Z,4.37
2023-01-22T11:53:37.486Z,4.28
2023-01-22T11:54:37.456Z,4.25
2023-01-22T11:55:37.453Z,4.33
2023-01-22T11:56:37.414Z,4.37
2023-01-22T11:57:37.504Z,4.39
2023-01-22T11:58:37.394Z,4.22
2023-01-22T11:59:37.376Z,4.14
2023-01-22T12:00:37.364Z,4.24
2023-01-22T12:01:37.434Z,4.37
2023-01-22T12:02:37.365Z,4.51
2023-01-22T12:03:37.375Z,4.61
2023-01-22T12:04:37.415Z,4.54
2023-01-22T12:05:37.332Z,4.47
2023-01-22T12:06:37.283Z,4.46
2023-01-22T12:07:37.388Z,4.44
2023-01-22T12:08:37.348Z,4.44
2023-01-22T12:09:37.266Z,4.54
2023-01-22T12:10:37.273Z,4.72
2023-01-22T12:11:37.231Z,4.76
2023-01-22T12:12:37.231Z,4.91
2023-01-22T12:13:37.291Z,4.89
2023-01-22T12:14:37.225Z,4.73
2023-01-22T12:15:37.314Z,4.70
2023-01-22T12:16:37.143Z,4.65
2023-01-22T12:17:37.234Z,4.59
2023-01-22T12:18:37.150Z,4.57
2023-01-22T12:19:37.182Z,4.47
2023-01-22T12:20:37.116Z,4.36
2023-01-22T12:21:39.095Z,4.29
2023-01-22T12:22:37.090Z,4.25
2023-01-22T12:23:37.132Z,4.26
2023-01-22T12:24:37.120Z,4.24
2023-01-22T12:25:37.100Z,4.24
2023-01-22T12:26:37.023Z,4.26
2023-01-22T12:27:37.045Z,4.26
2023-01-22T12:28:37.011Z,4.40
2023-01-22T12:29:37.130Z,4.55
2023-01-22T12:30:37.211Z,4.51
2023-01-22T12:31:38.094Z,4.50
2023-01-22T12:32:37.003Z,4.61
2023-01-22T12:33:36.969Z,4.69
2023-01-22T12:34:36.940Z,4.61
2023-01-22T12:35:37.009Z,4.55
2023-01-22T12:36:36.900Z,4.52
2023-01-22T12:37:36.909Z,4.51
2023-01-22T12:38:36.929Z,4.43
2023-01-22T12:39:36.968Z,4.42
2023-01-22T12:40:36.867Z,4.36
2023-01-22T12:41:36.913Z,4.36
2023-01-22T12:42:36.790Z,4.37
2023-01-22T12:43:36.931Z,4.37
2023-01-22T12:44:36.816Z,4.44
2023-01-22T12:45:36.813Z,4.59
2023-01-22T12:46:36.821Z,4.51
2023-01-22T12:47:36.773Z,4.40
2023-01-22T12:48:36.797Z,4.50
2023-01-22T12:49:36.775Z,4.50
2023-01-22T12:50:36.729Z,4.39
2023-01-22T12:51:36.714Z,4.33
2023-01-22T12:52:36.760Z,4.36
2023-01-22T12:53:36.702Z,4.33
2023-01-22T12:54:36.647Z,4.40
2023-01-22T12:55:36.647Z,4.32
2023-01-22T12:56:36.656Z,4.28
2023-01-22T12:57:36.865Z,4.29
2023-01-22T12:58:36.597Z,4.26
2023-01-22T12:59:36.723Z,4.29
2023-01-22T13:00:36.698Z,4.36
2023-01-22T13:01:36.739Z,4.44
2023-01-22T13:02:36.538Z,4.44
2023-01-22T13:03:36.586Z,4.36
2023-01-22T13:04:40.035Z,4.36
2023-01-22T13:05:36.540Z,4.44
2023-01-22T13:06:36.529Z,4.51
2023-01-22T13:07:36.494Z,4.46
2023-01-22T13:08:59.198Z,4.51
2023-01-22T13:09:36.458Z,4.50
2023-01-22T13:10:36.432Z,4.51
2023-01-22T13:11:36.513Z,4.52
2023-01-22T13:12:36.426Z,4.59
2023-01-22T13:13:36.399Z,4.54
2023-01-22T13:14:36.476Z,4.50
2023-01-22T13:15:36.386Z,4.44
2023-01-22T13:16:36.345Z,4.44
2023-01-22T13:17:36.359Z,4.44
2023-01-22T13:18:36.448Z,4.51
2023-01-22T13:19:36.336Z,4.52
2023-01-22T13:20:36.357Z,4.57
2023-01-22T13:21:36.466Z,4.59
2023-01-22T13:22:36.275Z,4.67
2023-01-22T13:23:36.309Z,4.69
2023-01-22T13:24:36.286Z,4.69
2023-01-22T13:25:36.249Z,4.72
2023-01-22T13:26:36.264Z,4.61